キンシャサ/ヌジリ国際空港の過去48時間の天気

キンシャサ/ヌジリ国際空港 (Kinshasa / N'Djili, Congo)

現在時刻: 9/22 18:24 WAT (9/22 17:24 UTC) 以下の時間は現地時間です。

過去48時間のMETAR気象情報
時間 風向 風速(m/s) 視程 気温(℃) 湿度(%) 気圧(hPa) 天気現象
22 18:00 静穏 0 8000m 29 58 1011
22 17:00 3 10km以上 30 55 1011
22 16:00 北北西 3 10km以上 31 52 1041
22 15:00 5 10km以上 31 49 1011
22 14:00 5 10km以上 30 52 1012
22 11:00 西北西 4 9000m 25 78 1016
22 08:00 2 6000m 24 78 1017
22 07:00 2 6000m 23 83 1015
22 05:00 静穏 0 7000m 23 83 1014
22 03:00 静穏 0 6000m 23 83 1014
22 02:00 静穏 0 6000m 24 78 1014
22 01:00 南西 3 6000m 24 78 1014
22 00:00 3 6000m 25 74 1014
21 23:00 南南東 2 6000m 25 74 1014
21 22:00 西 2 6000m 26 70 1014
21 21:00 南西 3 6000m 27 66 1013
21 20:00 西南西 4 6000m 28 62 1012
21 19:00 西 2 6000m 28 62 1011
21 18:00 西南西 4 6000m 29 58 1010
21 17:00 西 4 8000m 30 55 1010
21 16:00 西南西 4 8000m 31 49 1011
21 15:00 西 3 8000m 31 49 1012
21 14:00 西 4 8000m 31 52 1012
21 12:00 西 4 8000m 28 58 1014
21 07:00 静穏 0 4000m 22 88 1014 もや
21 05:00 静穏 0 7000m 22 88 1013
21 04:00 静穏 0 7000m 22 88 1013
21 03:00 静穏 0 7000m 23 83 1013
21 02:00 静穏 0 6000m 23 83 1013
21 01:00 静穏 0 6000m 24 78 1013
21 00:00 静穏 0 6000m 23 83 1014
20 23:00 静穏 0 6000m 24 83 1014
20 22:00 静穏 0 6000m 25 74 1014
20 21:00 静穏 0 6000m 25 74 1012
20 20:00 静穏 0 7000m 26 70 1012
20 19:00 静穏 0 7000m 26 70 1011
FZAA 221700Z 00000KT 8000 SCT020 29/20 Q1011 NOSIG
FZAA 221600Z 36006KT 9999 FEW020 SCT110 30/20 Q1011 NOSIG
FZAA 221500Z 33006KT 9999 FEW022 SCT110 31/20 Q1041 NOSIG
FZAA 221400Z 35010KT 9999 FEW022 SCT110 31/19 Q1011 NOSIG
FZAA 221300Z 36010KT 9999 FEW020 SCT100 30/19 Q1012 NOSIG
FZAA 221000Z 30008KT 9000 SCT016 25/21 Q1016 NOSIG
FZAA 220700Z 18004KT 6000 SCT015 BKN100 24/20 Q1017 NOSIG
FZAA 220600Z 18004KT 6000 SCT015 FEW030CB BKN100 23/20 Q1015 NOSIG
FZAA 220400Z 00000KT 7000 SCT016 23/20 Q1014 NOSIG
FZAA 220200Z 00000KT 6000 SCT016 23/20 Q1014 NOSIG
FZAA 220100Z 00000KT 6000 SCT016 24/20 Q1014 NOSIG
FZAA 220000Z 22006KT 6000 SCT016 24/20 Q1014 NOSIG
FZAA 212300Z 18006KT 6000 SCT016 25/20 Q1014 NOSIG
FZAA 212200Z 16004KT 6000 FEW016 25/20 Q1014 NOSIG
FZAA 212100Z 27004KT 6000 FEW018 26/20 Q1014 NOSIG
FZAA 212000Z 23006KT 6000 FEW018 27/20 Q1013 NOSG
FZAA 211900Z 24008KT 6000 FEW020 28/20 Q1012 NOSIG
FZAA 211800Z 27004KT 6000 FEW020 28/20 Q1011 NOSIG
FZAA 211700Z 24008KT 6000 NSC 29/20 Q1010 NOSIG
FZAA 211600Z 26008KT 8000 NSC 30/20 Q1010 NOSIG
FZAA 211500Z 24008KT 8000 SCT022 31/19 Q1011 NOSIG
FZAA 211400Z 26006KT 8000 SCT022 31/19 Q1012 NOSIG
FZAA 211300Z 28008KT 8000 BKN022 31/20 Q1012 NOSIG
FZAA 211100Z 27008KT 8000 BKN019 28/19 Q1014 NOSIG
FZAA 210600Z 00000KT 4000 BR FEW014 22/20 Q1014 NOSIG
FZAA 210400Z 00000KT 7000 NSC 22/20 Q1013 NOSIG
FZAA 210300Z 00000KT 7000 FEW014 22/20 Q1013 NOSIG
FZAA 210200Z 00000KT 7000 FEW016 23/20 Q1013 NOSIG
FZAA 210100Z 00000KT 6000 FEW016 23/20 Q1013 NOSIG
FZAA 210000Z 00000KT 6000 FEW016 24/20 Q1013 NOSIG
FZAA 202300Z 00000KT 6000 SCT016 23/20 Q1014 NOSIG
FZAA 202200Z 00000KT 6000 FEW016 24/21 Q1014 NOSIG
FZAA 202100Z 00000KT 6000 FEW016 25/20 Q1014 NOSIG
FZAA 202000Z 00000KT 6000 FEW018 25/20 Q1012 NOSIG
FZAA 201900Z 00000KT 7000 SCT018 26/20 Q1012 NOSIG
FZAA 201800Z 00000KT 7000 SCT018 26/20 Q1011 NOSIG